createdAt,value
2022-12-19T00:01:33.681Z,994.6
2022-12-19T00:03:35.195Z,994.6
2022-12-19T00:05:37.024Z,994.7
2022-12-19T00:07:39.066Z,994.7
2022-12-19T00:09:40.762Z,994.6
2022-12-19T00:13:44.138Z,994.6
2022-12-19T00:15:45.709Z,994.8
2022-12-19T00:19:48.639Z,994.6
2022-12-19T00:21:50.033Z,994.6
2022-12-19T00:23:51.749Z,994.6
2022-12-19T00:25:53.653Z,994.5
2022-12-19T00:27:55.269Z,994.7
2022-12-19T00:29:56.470Z,994.7
2022-12-19T00:31:58.552Z,994.7
2022-12-19T00:34:00.001Z,994.6
2022-12-19T00:36:01.876Z,994.6
2022-12-19T00:38:03.950Z,994.6
2022-12-19T00:40:06.006Z,994.8
2022-12-19T00:42:07.684Z,994.9
2022-12-19T00:44:09.254Z,994.8
2022-12-19T00:46:10.704Z,994.8
2022-12-19T00:48:12.517Z,994.9
2022-12-19T00:50:13.945Z,994.7
2022-12-19T00:52:15.951Z,994.6
2022-12-19T00:56:18.631Z,994.8
2022-12-19T00:58:20.161Z,994.6
2022-12-19T01:02:23.383Z,994.5
2022-12-19T01:04:28.762Z,994.7
2022-12-19T01:06:25.807Z,994.6
2022-12-19T01:08:27.179Z,994.6
2022-12-19T01:10:28.757Z,994.6
2022-12-19T01:12:30.089Z,994.7
2022-12-19T01:14:31.475Z,994.6
2022-12-19T01:16:33.378Z,994.6
2022-12-19T01:18:34.912Z,994.6
2022-12-19T01:20:36.516Z,994.5
2022-12-19T01:22:38.170Z,994.5
2022-12-19T01:24:39.791Z,994.6
2022-12-19T01:26:41.015Z,994.7
2022-12-19T01:28:42.933Z,994.7
2022-12-19T01:30:44.183Z,994.6
2022-12-19T01:32:45.715Z,994.4
2022-12-19T01:34:47.716Z,994.4
2022-12-19T01:36:49.548Z,994.5
2022-12-19T01:38:50.686Z,994.3
2022-12-19T01:40:52.117Z,994.4
2022-12-19T01:44:55.468Z,994.4
2022-12-19T01:46:57.160Z,994.4
2022-12-19T01:48:58.985Z,994.3
2022-12-19T01:51:02.381Z,994.3
2022-12-19T01:53:02.120Z,994.3
2022-12-19T01:55:03.691Z,994.3
2022-12-19T01:57:05.715Z,994.1
2022-12-19T01:59:07.038Z,994.4
2022-12-19T02:01:08.130Z,994.4
2022-12-19T02:03:11.256Z,994.4
2022-12-19T02:05:12.147Z,994.2
2022-12-19T02:07:15.654Z,994.2
2022-12-19T02:09:15.130Z,994.2
2022-12-19T02:11:16.368Z,994.3
2022-12-19T02:13:17.977Z,994.1
2022-12-19T02:15:19.184Z,994
2022-12-19T02:17:20.946Z,994
2022-12-19T02:19:22.346Z,994
2022-12-19T02:21:23.516Z,993.9
2022-12-19T02:23:24.761Z,993.8
2022-12-19T02:25:25.939Z,993.9
2022-12-19T02:27:27.708Z,993.8
2022-12-19T02:28:11.689Z,993.8
2022-12-19T02:32:14.709Z,993.9
2022-12-19T02:34:16.712Z,994.1
2022-12-19T02:38:19.624Z,994.1
2022-12-19T02:40:21.329Z,993.9
2022-12-19T02:42:23.343Z,993.8
2022-12-19T02:44:24.616Z,993.7
2022-12-19T02:46:26.690Z,993.5
2022-12-19T02:48:28.261Z,993.6
2022-12-19T02:50:29.911Z,993.6
2022-12-19T02:52:31.895Z,993.5
2022-12-19T02:54:33.946Z,993.5
2022-12-19T02:56:35.579Z,993.5
2022-12-19T02:58:37.404Z,993.3
2022-12-19T03:00:38.596Z,993.4
2022-12-19T03:02:40.571Z,993.3
2022-12-19T03:04:42.188Z,993.4
2022-12-19T03:06:43.833Z,993.4
2022-12-19T03:08:45.826Z,993.6
2022-12-19T03:10:47.579Z,993.7
2022-12-19T03:12:49.649Z,993.6
2022-12-19T03:14:51.179Z,993.7
2022-12-19T03:16:52.807Z,993.8
2022-12-19T03:20:55.114Z,993.8
2022-12-19T03:22:56.816Z,993.8
2022-12-19T03:24:58.230Z,993.7
2022-12-19T03:27:00.049Z,993.7
2022-12-19T03:29:01.810Z,993.7
2022-12-19T03:31:03.851Z,993.7
2022-12-19T03:33:05.298Z,993.6
2022-12-19T03:35:06.815Z,993.7
2022-12-19T03:37:08.498Z,993.8
2022-12-19T03:39:09.932Z,994
2022-12-19T03:41:12.007Z,994
2022-12-19T03:43:13.783Z,994
2022-12-19T03:45:15.324Z,994
2022-12-19T03:47:16.448Z,994
2022-12-19T03:49:18.112Z,994
2022-12-19T03:51:19.524Z,994.1
2022-12-19T03:53:20.691Z,994.1
2022-12-19T03:55:22.578Z,993.9
2022-12-19T03:57:23.634Z,994
2022-12-19T03:59:25.438Z,993.9
2022-12-19T04:03:29.175Z,993.8
2022-12-19T04:05:30.821Z,993.8
2022-12-19T04:07:32.866Z,993.9
2022-12-19T04:09:34.019Z,994
2022-12-19T04:11:35.188Z,993.8
2022-12-19T04:13:37.137Z,993.6
2022-12-19T04:15:38.901Z,993.6
2022-12-19T04:17:40.531Z,993.7
2022-12-19T04:19:42.717Z,993.6
2022-12-19T04:21:43.606Z,993.6
2022-12-19T04:23:45.006Z,993.6
2022-12-19T04:25:47.050Z,993.6
2022-12-19T04:27:49.048Z,993.8
2022-12-19T04:29:50.170Z,993.8
2022-12-19T04:31:51.508Z,994
2022-12-19T04:33:53.077Z,993.8
2022-12-19T04:35:54.910Z,993.8
2022-12-19T04:37:56.517Z,993.8
2022-12-19T04:39:57.797Z,993.8
2022-12-19T04:41:59.498Z,993.8
2022-12-19T04:46:02.439Z,993.7
2022-12-19T04:48:03.925Z,993.6
2022-12-19T04:50:05.068Z,993.7
2022-12-19T04:52:06.773Z,993.6
2022-12-19T04:54:08.060Z,993.5
2022-12-19T04:56:09.595Z,993.5
2022-12-19T04:58:11.327Z,993.5
2022-12-19T05:00:12.563Z,993.5
2022-12-19T05:02:14.496Z,993.5
2022-12-19T05:04:16.230Z,993.5
2022-12-19T05:06:17.523Z,993.5
2022-12-19T05:08:19.329Z,993.4
2022-12-19T05:12:21.938Z,993.5
2022-12-19T05:14:23.176Z,993.4
2022-12-19T05:16:25.098Z,993.4
2022-12-19T05:18:26.267Z,993.5
2022-12-19T05:22:30.038Z,993.4
2022-12-19T05:24:31.674Z,993.4
2022-12-19T05:26:32.837Z,993.4
2022-12-19T05:28:34.232Z,993.3
2022-12-19T05:30:36.221Z,993.4
2022-12-19T05:32:37.733Z,993.4
2022-12-19T05:34:39.704Z,993.4
2022-12-19T05:36:40.876Z,993.4
2022-12-19T05:38:42.130Z,993.4
2022-12-19T05:40:43.658Z,993.3
2022-12-19T05:42:45.471Z,993.3
2022-12-19T05:44:47.495Z,993.1
2022-12-19T05:46:48.631Z,993.2
2022-12-19T05:48:50.511Z,993.3
2022-12-19T05:50:52.299Z,993.3
2022-12-19T05:54:56.225Z,993.2
2022-12-19T05:56:57.706Z,993.2
2022-12-19T05:58:59.163Z,993.2
2022-12-19T06:01:00.873Z,993.1
2022-12-19T06:03:02.302Z,993.1
2022-12-19T06:05:03.445Z,993.1
2022-12-19T06:07:04.783Z,993.1
2022-12-19T06:09:05.912Z,993
2022-12-19T06:11:07.645Z,993.1
2022-12-19T06:13:08.977Z,993.2
2022-12-19T06:15:10.728Z,993.2
2022-12-19T06:17:12.721Z,993.1
2022-12-19T06:19:14.012Z,993.1
2022-12-19T06:21:15.923Z,993.2
2022-12-19T06:23:16.996Z,993.1
2022-12-19T06:25:18.876Z,993.1
2022-12-19T06:27:20.242Z,993
2022-12-19T06:29:22.064Z,993.1
2022-12-19T06:31:23.795Z,993
2022-12-19T06:33:25.622Z,993
2022-12-19T06:37:28.871Z,992.9
2022-12-19T06:39:30.378Z,992.9
2022-12-19T06:41:32.369Z,993.1
2022-12-19T06:43:33.677Z,993.1
2022-12-19T06:47:36.776Z,993.1
2022-12-19T06:49:38.500Z,993.1
2022-12-19T06:51:40.373Z,993.2
2022-12-19T06:53:41.802Z,993.2
2022-12-19T06:55:43.773Z,993.2
2022-12-19T06:57:45.239Z,993.2
2022-12-19T06:59:46.836Z,993.2
2022-12-19T07:01:48.230Z,993.1
2022-12-19T07:03:50.209Z,993.1
2022-12-19T07:05:52.016Z,993.1
2022-12-19T07:07:53.249Z,993.2
2022-12-19T07:09:55.149Z,993.1
2022-12-19T07:11:56.769Z,993.1
2022-12-19T07:13:58.373Z,992.9
2022-12-19T07:15:59.907Z,993.2
2022-12-19T07:20:03.014Z,993.1
2022-12-19T07:22:04.864Z,992.9
2022-12-19T07:24:06.094Z,993
2022-12-19T07:26:07.639Z,993.1
2022-12-19T07:30:10.618Z,993.1
2022-12-19T07:32:12.222Z,993.1
2022-12-19T07:34:14.182Z,993.1
2022-12-19T07:36:15.896Z,993.2
2022-12-19T07:38:17.129Z,993.1
2022-12-19T07:40:19.035Z,993.2
2022-12-19T07:42:20.237Z,993.2
2022-12-19T07:44:21.554Z,993.3
2022-12-19T07:46:23.058Z,993.2
2022-12-19T07:48:24.544Z,993.3
2022-12-19T07:50:25.716Z,993.2
2022-12-19T07:52:27.364Z,993.2
2022-12-19T07:54:28.436Z,993.2
2022-12-19T07:56:30.506Z,993.2
2022-12-19T07:58:31.980Z,993.2
2022-12-19T08:00:34.023Z,993.2
2022-12-19T08:02:35.783Z,993.2
2022-12-19T08:04:37.018Z,993.1
2022-12-19T08:06:41.248Z,993.3
2022-12-19T08:08:39.530Z,993.2
2022-12-19T08:12:42.262Z,993.1
2022-12-19T08:14:43.862Z,993.2
2022-12-19T08:18:46.558Z,993.2
2022-12-19T08:20:48.194Z,993.3
2022-12-19T08:22:49.790Z,993.2
2022-12-19T08:24:51.128Z,993.3
2022-12-19T08:26:52.307Z,993.4
2022-12-19T08:28:53.939Z,993.4
2022-12-19T08:30:55.143Z,993.5
2022-12-19T08:32:56.705Z,993.4
2022-12-19T08:34:58.010Z,993.4
2022-12-19T08:36:59.452Z,993.3
2022-12-19T08:39:00.829Z,993.3
2022-12-19T08:41:02.798Z,993.2
2022-12-19T08:43:04.344Z,993.2
2022-12-19T08:45:05.893Z,993.2
2022-12-19T08:47:07.735Z,993.2
2022-12-19T08:49:08.813Z,993.2
2022-12-19T08:51:10.514Z,993.2
2022-12-19T08:53:12.450Z,993.2
2022-12-19T08:55:13.565Z,993.1
2022-12-19T08:57:15.309Z,993.2
2022-12-19T08:59:19.333Z,993.2
2022-12-19T09:01:18.031Z,993.2
2022-12-19T09:03:20.032Z,993.1
2022-12-19T09:05:59.058Z,993.2
2022-12-19T09:07:22.189Z,993.2
2022-12-19T09:09:23.445Z,993
2022-12-19T09:11:24.659Z,993.2
2022-12-19T09:13:26.373Z,993.1
2022-12-19T09:14:10.265Z,993
2022-12-19T09:16:12.210Z,993.1
2022-12-19T09:18:14.019Z,993.1
2022-12-19T09:20:19.723Z,993.1
2022-12-19T09:22:16.512Z,993.1
2022-12-19T09:24:17.503Z,992.9
2022-12-19T09:26:19.284Z,993
2022-12-19T09:28:27.987Z,993
2022-12-19T09:30:22.733Z,993
2022-12-19T09:32:24.583Z,992.9
2022-12-19T09:34:33.140Z,993
2022-12-19T09:36:27.921Z,993
2022-12-19T09:38:29.488Z,992.9
2022-12-19T09:40:31.099Z,993
2022-12-19T09:42:32.401Z,992.9
2022-12-19T09:44:34.011Z,992.9
2022-12-19T09:46:35.391Z,992.9
2022-12-19T09:50:38.828Z,992.9
2022-12-19T09:52:40.428Z,992.8
2022-12-19T09:54:42.148Z,992.8
2022-12-19T09:56:46.097Z,992.9
2022-12-19T09:58:45.314Z,993
2022-12-19T10:00:46.620Z,992.9
2022-12-19T10:02:48.019Z,992.9
2022-12-19T10:04:51.694Z,993
2022-12-19T10:07:16.508Z,992.9
2022-12-19T10:09:26.868Z,992.8
2022-12-19T10:12:34.183Z,992.8
2022-12-19T10:12:59.455Z,992.7
2022-12-19T10:14:57.655Z,992.7
2022-12-19T10:17:22.933Z,992.8
2022-12-19T10:21:01.520Z,992.7
2022-12-19T10:23:03.125Z,992.8
2022-12-19T10:25:08.186Z,992.8
2022-12-19T10:27:06.317Z,992.8
2022-12-19T10:31:14.264Z,992.7
2022-12-19T10:33:11.643Z,992.6
2022-12-19T10:35:11.963Z,992.5
2022-12-19T10:37:19.781Z,992.4
2022-12-19T10:39:14.751Z,992.5
2022-12-19T10:41:16.358Z,992.5
2022-12-19T10:43:25.827Z,992.4
2022-12-19T10:45:18.902Z,992.6
2022-12-19T10:47:20.814Z,992.5
2022-12-19T10:49:22.043Z,992.5
2022-12-19T10:51:23.098Z,992.5
2022-12-19T10:53:24.192Z,992.6
2022-12-19T10:55:25.673Z,992.6
2022-12-19T10:57:26.824Z,992.6
2022-12-19T10:59:28.070Z,992.6
2022-12-19T11:01:29.869Z,992.5
2022-12-19T11:03:31.747Z,992.5
2022-12-19T11:05:33.064Z,992.4
2022-12-19T11:07:34.277Z,992.3
2022-12-19T11:09:35.617Z,992.3
2022-12-19T11:12:38.886Z,992.3
2022-12-19T11:16:35.587Z,992.2
2022-12-19T11:17:14.412Z,992.2
2022-12-19T11:24:07.478Z,992.2
2022-12-19T11:29:27.938Z,992.1
2022-12-19T11:29:28.130Z,992.1
2022-12-19T11:29:28.981Z,992
2022-12-19T11:30:22.233Z,992.1
2022-12-19T11:32:29.664Z,992
2022-12-19T11:33:52.431Z,992
2022-12-19T11:35:54.273Z,992
2022-12-19T11:37:56.187Z,991.9
2022-12-19T11:39:58.125Z,991.9
2022-12-19T11:41:59.666Z,992
2022-12-19T11:44:01.017Z,991.8
2022-12-19T11:46:02.729Z,991.8
2022-12-19T11:48:04.437Z,991.7
2022-12-19T11:50:06.031Z,991.7
2022-12-19T11:52:09.078Z,991.7
2022-12-19T11:54:08.812Z,991.8
2022-12-19T11:56:16.021Z,991.9
2022-12-19T11:58:12.349Z,991.9
2022-12-19T12:00:14.024Z,991.9
2022-12-19T12:02:15.245Z,991.9
2022-12-19T12:04:17.195Z,991.8
2022-12-19T12:06:18.494Z,991.8
2022-12-19T12:08:37.135Z,991.8
2022-12-19T12:12:42.675Z,991.8
2022-12-19T12:17:12.696Z,991.8
2022-12-19T12:23:28.456Z,991.6
2022-12-19T12:28:52.482Z,991.7
2022-12-19T12:30:47.076Z,991.6
2022-12-19T12:30:52.325Z,991.7
2022-12-19T12:31:33.088Z,991.6
2022-12-19T12:31:37.822Z,991.5
2022-12-19T12:32:07.818Z,991.3
2022-12-19T12:35:27.436Z,991.4
2022-12-19T12:35:27.720Z,991.4
2022-12-19T12:38:07.248Z,991.3
2022-12-19T12:38:44.333Z,991.4
2022-12-19T12:40:45.755Z,991.3
2022-12-19T12:42:47.591Z,991.4
2022-12-19T12:44:49.339Z,991.3
2022-12-19T12:46:50.928Z,991.3
2022-12-19T12:48:52.162Z,991.4
2022-12-19T12:50:55.271Z,991.4
2022-12-19T12:52:55.335Z,991.4
2022-12-19T12:54:56.997Z,991.3
2022-12-19T12:56:58.143Z,991.3
2022-12-19T13:01:01.936Z,991.5
2022-12-19T13:03:03.841Z,991.5
2022-12-19T13:05:05.314Z,991.5
2022-12-19T13:07:06.817Z,991.4
2022-12-19T13:09:08.852Z,991.4
2022-12-19T13:11:10.577Z,991.3
2022-12-19T13:13:15.128Z,991.2
2022-12-19T13:15:13.525Z,991.2
2022-12-19T13:17:15.346Z,991.2
2022-12-19T13:19:19.825Z,991.3
2022-12-19T13:21:18.422Z,991.2
2022-12-19T13:23:20.057Z,991.3
2022-12-19T13:25:21.782Z,991.2
2022-12-19T13:27:23.407Z,991.3
2022-12-19T13:29:25.300Z,991.2
2022-12-19T13:31:27.204Z,991.3
2022-12-19T13:33:28.915Z,991.3
2022-12-19T13:36:10.835Z,991.3
2022-12-19T13:39:52.683Z,991.2
2022-12-19T13:39:53.346Z,991.3
2022-12-19T13:41:35.699Z,991.3
2022-12-19T13:43:36.921Z,991.2
2022-12-19T13:45:39.014Z,991.2
2022-12-19T13:47:40.868Z,991.3
2022-12-19T13:49:42.571Z,991.2
2022-12-19T13:51:43.832Z,991.2
2022-12-19T13:53:45.200Z,991.2
2022-12-19T13:55:46.384Z,991.2
2022-12-19T13:57:49.413Z,991.2
2022-12-19T13:59:59.915Z,991.2
2022-12-19T14:01:52.094Z,991.2
2022-12-19T14:03:53.628Z,991.2
2022-12-19T14:06:17.946Z,991.2
2022-12-19T14:07:57.313Z,991.2
2022-12-19T14:11:25.767Z,991.2
2022-12-19T14:12:21.129Z,991.1
2022-12-19T14:14:06.704Z,991.2
2022-12-19T14:16:03.876Z,991.2
2022-12-19T14:18:08.370Z,991.1
2022-12-19T14:20:33.252Z,991.2
2022-12-19T14:22:14.568Z,991.1
2022-12-19T14:24:10.459Z,991.2
2022-12-19T14:28:15.962Z,991.2
2022-12-19T14:28:27.406Z,991.3
2022-12-19T14:30:26.969Z,991.2
2022-12-19T14:33:41.893Z,991.3
2022-12-19T14:34:43.584Z,991.3
2022-12-19T14:36:25.481Z,991.3
2022-12-19T14:39:21.548Z,991.2
2022-12-19T14:40:24.992Z,991.2
2022-12-19T14:42:57.037Z,991.4
2022-12-19T14:50:16.819Z,991.2
2022-12-19T14:50:17.018Z,991.3
2022-12-19T14:51:09.165Z,991.3
2022-12-19T14:54:20.249Z,991.3
2022-12-19T14:55:05.268Z,991.2
2022-12-19T14:56:57.966Z,991.2
2022-12-19T14:58:51.892Z,991.1
2022-12-19T15:00:50.985Z,991.1
2022-12-19T15:02:41.934Z,991.2
2022-12-19T15:04:49.729Z,991.2
2022-12-19T15:07:06.099Z,991.2
2022-12-19T15:09:01.404Z,991.4
2022-12-19T15:11:01.451Z,991.3
2022-12-19T15:14:20.804Z,991.2
2022-12-19T15:14:58.920Z,991.2
2022-12-19T15:16:54.041Z,991.2
2022-12-19T15:18:55.628Z,991.2
2022-12-19T15:20:57.403Z,991.1
2022-12-19T15:22:58.519Z,991.1
2022-12-19T15:24:59.811Z,991.1
2022-12-19T15:27:01.685Z,991
2022-12-19T15:29:03.162Z,991
2022-12-19T15:31:05.123Z,991.2
2022-12-19T15:35:08.066Z,991
2022-12-19T15:37:09.207Z,991.2
2022-12-19T15:39:10.286Z,991
2022-12-19T15:41:14.420Z,991
2022-12-19T15:43:30.100Z,991.1
2022-12-19T15:45:14.727Z,991
2022-12-19T15:47:16.395Z,991
2022-12-19T15:49:18.291Z,990.9
2022-12-19T15:51:20.295Z,990.9
2022-12-19T15:53:31.529Z,990.9
2022-12-19T15:55:23.569Z,990.9
2022-12-19T15:57:25.282Z,990.8
2022-12-19T15:59:29.932Z,990.8
2022-12-19T16:02:11.840Z,990.7
2022-12-19T16:04:13.860Z,990.7
2022-12-19T16:06:15.504Z,990.6
2022-12-19T16:08:17.479Z,990.7
2022-12-19T16:10:19.009Z,990.7
2022-12-19T16:12:20.388Z,990.7
2022-12-19T16:14:22.030Z,990.7
2022-12-19T16:16:23.451Z,990.7
2022-12-19T16:18:24.808Z,990.7
2022-12-19T16:20:26.515Z,990.8
2022-12-19T16:22:28.353Z,990.7
2022-12-19T16:24:29.853Z,990.6
2022-12-19T16:28:32.966Z,990.5
2022-12-19T16:30:34.922Z,990.4
2022-12-19T16:32:36.545Z,990.6
2022-12-19T16:34:38.320Z,990.5
2022-12-19T16:36:40.006Z,990.5
2022-12-19T16:38:41.299Z,990.5
2022-12-19T16:40:42.774Z,990.4
2022-12-19T16:42:44.233Z,990.5
2022-12-19T16:44:45.777Z,990.4
2022-12-19T16:46:50.267Z,990.5
2022-12-19T16:48:48.974Z,990.6
2022-12-19T16:50:50.126Z,990.6
2022-12-19T16:52:52.044Z,990.6
2022-12-19T16:54:53.517Z,990.7
2022-12-19T16:56:54.950Z,990.6
2022-12-19T16:58:56.718Z,990.5
2022-12-19T17:00:58.115Z,990.6
2022-12-19T17:02:59.976Z,990.5
2022-12-19T17:05:01.907Z,990.5
2022-12-19T17:07:03.412Z,990.5
2022-12-19T17:11:06.576Z,990.5
2022-12-19T17:13:08.369Z,990.4
2022-12-19T17:15:10.076Z,990.4
2022-12-19T17:17:11.620Z,990.4
2022-12-19T17:19:13.348Z,990.5
2022-12-19T17:21:15.053Z,990.4
2022-12-19T17:23:16.268Z,990.4
2022-12-19T17:25:17.371Z,990.4
2022-12-19T17:27:18.666Z,990.3
2022-12-19T17:29:20.440Z,990.4
2022-12-19T17:31:22.093Z,990.5
2022-12-19T17:33:23.761Z,990.6
2022-12-19T17:35:27.960Z,990.3
2022-12-19T17:37:26.718Z,990.3
2022-12-19T17:39:28.625Z,990.3
2022-12-19T17:41:30.306Z,990.3
2022-12-19T17:43:31.489Z,990.3
2022-12-19T17:45:32.996Z,990.5
2022-12-19T17:47:34.281Z,990.5
2022-12-19T17:49:36.084Z,990.6
2022-12-19T17:51:37.615Z,990.5
2022-12-19T17:53:39.457Z,990.5
2022-12-19T17:55:41.025Z,990.6
2022-12-19T17:57:43.048Z,990.6
2022-12-19T17:59:44.151Z,990.6
2022-12-19T18:01:46.064Z,990.5
2022-12-19T18:03:47.471Z,990.6
2022-12-19T18:05:48.463Z,990.7
2022-12-19T18:07:50.198Z,990.7
2022-12-19T18:09:52.047Z,990.7
2022-12-19T18:11:53.354Z,990.7
2022-12-19T18:13:55.159Z,990.8
2022-12-19T18:15:56.304Z,990.8
2022-12-19T18:17:58.280Z,990.8
2022-12-19T18:19:59.950Z,990.8
2022-12-19T18:22:01.874Z,990.9
2022-12-19T18:26:05.585Z,990.9
2022-12-19T18:28:07.481Z,990.8
2022-12-19T18:30:09.031Z,990.8
2022-12-19T18:32:10.120Z,990.8
2022-12-19T18:34:11.715Z,990.7
2022-12-19T18:36:12.868Z,990.7
2022-12-19T18:38:13.972Z,990.7
2022-12-19T18:40:20.150Z,990.7
2022-12-19T18:42:17.578Z,990.6
2022-12-19T18:44:18.897Z,990.5
2022-12-19T18:46:20.913Z,990.5
2022-12-19T18:48:22.481Z,990.5
2022-12-19T18:50:24.146Z,990.5
2022-12-19T18:52:25.607Z,990.5
2022-12-19T18:54:27.560Z,990.3
2022-12-19T18:56:28.668Z,990.5
2022-12-19T18:58:29.947Z,990.6
2022-12-19T19:00:31.196Z,990.5
2022-12-19T19:02:32.776Z,990.6
2022-12-19T19:04:34.503Z,990.6
2022-12-19T19:08:38.214Z,990.6
2022-12-19T19:10:38.996Z,990.6
2022-12-19T19:12:40.224Z,990.3
2022-12-19T19:14:41.475Z,990.4
2022-12-19T19:16:43.550Z,990.4
2022-12-19T19:18:45.430Z,990.5
2022-12-19T19:20:47.297Z,990.3
2022-12-19T19:22:48.718Z,990.2
2022-12-19T19:24:49.939Z,990.3
2022-12-19T19:26:51.489Z,990.3
2022-12-19T19:28:53.477Z,990.3
2022-12-19T19:30:54.745Z,990.3
2022-12-19T19:32:56.393Z,990.4
2022-12-19T19:34:58.150Z,990.4
2022-12-19T19:37:00.139Z,990.3
2022-12-19T19:39:01.711Z,990.3
2022-12-19T19:41:03.170Z,990.3
2022-12-19T19:43:04.387Z,990.3
2022-12-19T19:45:06.311Z,990.4
2022-12-19T19:47:07.488Z,990.3
2022-12-19T19:49:08.729Z,990.3
2022-12-19T19:51:10.475Z,990.4
2022-12-19T19:53:12.060Z,990.4
2022-12-19T19:55:13.556Z,990.4
2022-12-19T19:57:15.340Z,990.4
2022-12-19T19:59:17.233Z,990.4
2022-12-19T20:01:18.721Z,990.4
2022-12-19T20:03:22.835Z,990.4
2022-12-19T20:05:21.764Z,990.4
2022-12-19T20:07:23.045Z,990.3
2022-12-19T20:09:24.550Z,990.3
2022-12-19T20:11:26.633Z,990.4
2022-12-19T20:13:27.722Z,990.3
2022-12-19T20:15:29.195Z,990.5
2022-12-19T20:17:30.431Z,990.4
2022-12-19T20:19:32.302Z,990.5
2022-12-19T20:21:33.954Z,990.4
2022-12-19T20:23:35.807Z,990.6
2022-12-19T20:25:37.709Z,990.6
2022-12-19T20:27:38.847Z,990.7
2022-12-19T20:29:40.074Z,990.6
2022-12-19T20:31:42.047Z,990.7
2022-12-19T20:33:43.289Z,990.7
2022-12-19T20:35:45.025Z,990.7
2022-12-19T20:37:47.067Z,990.8
2022-12-19T20:39:48.554Z,990.7
2022-12-19T20:41:50.344Z,990.7
2022-12-19T20:43:52.106Z,990.7
2022-12-19T20:45:53.275Z,990.7
2022-12-19T20:47:55.153Z,990.7
2022-12-19T20:49:56.380Z,990.7
2022-12-19T20:51:58.251Z,990.7
2022-12-19T20:53:59.275Z,990.9
2022-12-19T20:56:01.256Z,990.8
2022-12-19T21:00:03.893Z,990.7
2022-12-19T21:02:05.571Z,990.8
2022-12-19T21:04:07.033Z,990.8
2022-12-19T21:06:08.766Z,990.8
2022-12-19T21:10:11.645Z,990.9
2022-12-19T21:12:13.524Z,990.9
2022-12-19T21:14:15.260Z,990.8
2022-12-19T21:16:17.290Z,990.8
2022-12-19T21:18:18.282Z,990.8
2022-12-19T21:20:19.984Z,990.7
2022-12-19T21:22:21.591Z,990.8
2022-12-19T21:24:23.115Z,990.8
2022-12-19T21:26:24.086Z,990.7
2022-12-19T21:28:25.953Z,990.8
2022-12-19T21:30:27.467Z,990.8
2022-12-19T21:32:28.750Z,990.8
2022-12-19T21:34:30.768Z,990.7
2022-12-19T21:36:31.905Z,990.7
2022-12-19T21:38:33.857Z,990.7
2022-12-19T21:40:35.804Z,990.9
2022-12-19T21:42:37.526Z,990.8
2022-12-19T21:44:39.297Z,990.8
2022-12-19T21:46:40.589Z,990.8
2022-12-19T21:48:42.368Z,990.9
2022-12-19T21:52:45.639Z,990.8
2022-12-19T21:54:47.536Z,990.8
2022-12-19T21:56:48.842Z,990.7
2022-12-19T21:58:50.038Z,990.9
2022-12-19T22:00:51.335Z,990.8
2022-12-19T22:03:11.847Z,990.9
2022-12-19T22:04:54.479Z,990.9
2022-12-19T22:06:56.134Z,990.7
2022-12-19T22:08:57.680Z,990.7
2022-12-19T22:10:59.019Z,990.7
2022-12-19T22:13:00.350Z,990.7
2022-12-19T22:15:01.708Z,990.7
2022-12-19T22:17:03.366Z,990.7
2022-12-19T22:19:05.411Z,990.7
2022-12-19T22:21:07.128Z,990.6
2022-12-19T22:23:12.847Z,990.5
2022-12-19T22:25:09.588Z,990.5
2022-12-19T22:27:11.309Z,990.5
2022-12-19T22:29:12.638Z,990.5
2022-12-19T22:31:14.136Z,990.5
2022-12-19T22:33:15.719Z,990.5
2022-12-19T22:35:17.151Z,990.4
2022-12-19T22:37:18.708Z,990.5
2022-12-19T22:41:21.636Z,990.4
2022-12-19T22:43:23.275Z,990.4
2022-12-19T22:45:25.240Z,990.4
2022-12-19T22:46:09.173Z,990.4
2022-12-19T22:48:10.880Z,990.2
2022-12-19T22:50:12.927Z,990.3
2022-12-19T22:52:14.455Z,990.2
2022-12-19T22:54:16.495Z,990.3
2022-12-19T22:56:17.788Z,990.3
2022-12-19T22:58:19.311Z,990.2
2022-12-19T23:00:20.413Z,990.2
2022-12-19T23:02:22.536Z,990.2
2022-12-19T23:04:24.403Z,990.2
2022-12-19T23:06:25.591Z,990.2
2022-12-19T23:08:26.729Z,990.2
2022-12-19T23:10:28.361Z,990.2
2022-12-19T23:12:30.409Z,990.3
2022-12-19T23:14:32.002Z,990.3
2022-12-19T23:16:33.343Z,990.4
2022-12-19T23:18:34.770Z,990.4
2022-12-19T23:20:36.756Z,990.3
2022-12-19T23:22:37.816Z,990.3
2022-12-19T23:24:39.785Z,990.2
2022-12-19T23:26:41.259Z,990.2
2022-12-19T23:28:42.820Z,990.2
2022-12-19T23:30:44.811Z,990.1
2022-12-19T23:32:50.603Z,990.1
2022-12-19T23:34:48.301Z,990.1
2022-12-19T23:37:11.754Z,990.1
2022-12-19T23:38:51.688Z,990.1
2022-12-19T23:40:53.195Z,990.1
2022-12-19T23:42:54.674Z,990.1
2022-12-19T23:44:55.770Z,990.1
2022-12-19T23:47:02.884Z,990.1
2022-12-19T23:48:58.508Z,990.1
2022-12-19T23:50:59.585Z,990.1
2022-12-19T23:53:01.148Z,990
2022-12-19T23:55:03.164Z,990.1
2022-12-19T23:57:04.956Z,990
2022-12-19T23:59:06.152Z,990.1
